createdAt,value
2019-01-06T00:00:48.975Z,0.00
2019-01-06T00:01:48.996Z,0.00
2019-01-06T00:02:49.012Z,0.00
2019-01-06T00:03:48.949Z,0.00
2019-01-06T00:04:48.964Z,0.00
2019-01-06T00:05:48.933Z,0.00
2019-01-06T00:06:48.911Z,0.00
2019-01-06T00:07:48.908Z,0.00
2019-01-06T00:08:48.896Z,0.00
2019-01-06T00:09:48.884Z,0.00
2019-01-06T00:10:48.892Z,0.00
2019-01-06T00:11:48.864Z,0.00
2019-01-06T00:12:48.848Z,0.00
2019-01-06T00:13:48.880Z,0.00
2019-01-06T00:14:48.842Z,0.00
2019-01-06T00:15:48.826Z,0.00
2019-01-06T00:16:48.853Z,0.00
2019-01-06T00:17:48.808Z,0.00
2019-01-06T00:18:48.789Z,0.00
2019-01-06T00:19:48.786Z,0.00
2019-01-06T00:20:48.799Z,0.00
2019-01-06T00:21:48.777Z,0.00
2019-01-06T00:22:48.760Z,0.00
2019-01-06T00:23:48.810Z,0.00
2019-01-06T00:24:48.722Z,0.00
2019-01-06T00:25:48.739Z,0.00
2019-01-06T00:26:48.724Z,0.00
2019-01-06T00:27:48.728Z,0.00
2019-01-06T00:28:48.684Z,0.00
2019-01-06T00:29:48.691Z,0.00
2019-01-06T00:30:48.661Z,0.00
2019-01-06T00:31:48.678Z,0.00
2019-01-06T00:32:48.647Z,0.00
2019-01-06T00:33:48.664Z,0.00
2019-01-06T00:34:48.680Z,0.00
2019-01-06T00:35:48.627Z,0.00
2019-01-06T00:36:48.604Z,0.00
2019-01-06T00:37:48.592Z,0.00
2019-01-06T00:38:48.602Z,0.00
2019-01-06T00:39:48.582Z,0.00
2019-01-06T00:40:48.548Z,0.00
2019-01-06T00:41:48.544Z,0.00
2019-01-06T00:42:48.528Z,0.00
2019-01-06T00:43:48.525Z,0.00
2019-01-06T00:44:48.510Z,0.00
2019-01-06T00:45:48.509Z,0.00
2019-01-06T00:46:48.484Z,0.00
2019-01-06T00:47:48.469Z,0.00
2019-01-06T00:48:48.460Z,0.00
2019-01-06T00:49:48.492Z,0.00
2019-01-06T00:50:48.446Z,0.00
2019-01-06T00:51:48.449Z,0.00
2019-01-06T00:52:48.438Z,0.00
2019-01-06T00:53:48.409Z,0.00
2019-01-06T00:54:48.397Z,0.00
2019-01-06T00:55:48.404Z,0.00
2019-01-06T00:56:48.436Z,0.00
2019-01-06T00:57:48.443Z,0.00
2019-01-06T00:58:48.377Z,0.00
2019-01-06T00:59:48.346Z,0.00
2019-01-06T01:00:48.339Z,0.00
2019-01-06T01:01:48.337Z,0.00
2019-01-06T01:02:48.312Z,0.00
2019-01-06T01:03:48.310Z,0.00
2019-01-06T01:04:48.309Z,0.00
2019-01-06T01:05:48.285Z,0.00
2019-01-06T01:06:48.276Z,0.00
2019-01-06T01:07:48.295Z,0.00
2019-01-06T01:08:48.258Z,0.00
2019-01-06T01:09:48.242Z,0.00
2019-01-06T01:10:48.237Z,0.00
2019-01-06T01:11:48.227Z,0.00
2019-01-06T01:12:48.216Z,0.00
2019-01-06T01:13:48.223Z,0.00
2019-01-06T01:14:48.189Z,0.00
2019-01-06T01:15:48.184Z,0.00
2019-01-06T01:16:48.194Z,0.00
2019-01-06T01:17:48.165Z,0.00
2019-01-06T01:18:48.159Z,0.00
2019-01-06T01:19:48.153Z,0.00
2019-01-06T01:20:48.123Z,0.00
2019-01-06T01:21:48.148Z,0.00
2019-01-06T01:22:48.106Z,0.00
2019-01-06T01:23:48.093Z,0.00
2019-01-06T01:24:48.093Z,0.00
2019-01-06T01:25:48.100Z,0.00
2019-01-06T01:26:48.737Z,0.00
2019-01-06T01:27:48.070Z,0.00
2019-01-06T01:28:48.109Z,0.00
2019-01-06T01:29:48.029Z,0.00
2019-01-06T01:30:48.032Z,0.00
2019-01-06T01:31:48.013Z,0.00
2019-01-06T01:32:48.002Z,0.00
2019-01-06T01:33:47.987Z,0.00
2019-01-06T01:34:47.993Z,0.00
2019-01-06T01:35:47.984Z,0.00
2019-01-06T01:36:47.961Z,0.00
2019-01-06T01:37:47.948Z,0.00
2019-01-06T01:38:47.946Z,0.00
2019-01-06T01:39:47.934Z,0.00
2019-01-06T01:40:47.918Z,0.00
2019-01-06T01:41:47.910Z,0.00
2019-01-06T01:42:47.901Z,0.00
2019-01-06T01:43:47.975Z,0.00
2019-01-06T01:44:47.879Z,0.00
2019-01-06T01:45:47.882Z,0.00
2019-01-06T01:46:47.859Z,0.00
2019-01-06T01:47:47.855Z,0.00
2019-01-06T01:48:47.841Z,0.00
2019-01-06T01:49:47.854Z,0.00
2019-01-06T01:50:47.815Z,0.00
2019-01-06T01:51:47.801Z,0.00
2019-01-06T01:52:47.807Z,0.00
2019-01-06T01:53:47.787Z,0.00
2019-01-06T01:54:47.783Z,0.00
2019-01-06T01:55:47.771Z,0.00
2019-01-06T01:56:47.753Z,0.00
2019-01-06T01:57:47.747Z,0.00
2019-01-06T01:58:47.729Z,0.00
2019-01-06T01:59:47.763Z,0.00
2019-01-06T02:00:47.705Z,0.00
2019-01-06T02:01:47.701Z,0.00
2019-01-06T02:02:47.695Z,0.00
2019-01-06T02:03:47.705Z,0.00
2019-01-06T02:04:47.676Z,0.00
2019-01-06T02:05:47.674Z,0.00
2019-01-06T02:06:47.660Z,0.00
2019-01-06T02:07:47.636Z,0.00
2019-01-06T02:08:47.626Z,0.00
2019-01-06T02:09:47.619Z,0.00
2019-01-06T02:10:47.618Z,0.00
2019-01-06T02:11:47.593Z,0.00
2019-01-06T02:12:47.586Z,0.00
2019-01-06T02:13:47.591Z,0.00
2019-01-06T02:14:47.561Z,0.00
2019-01-06T02:15:47.579Z,0.00
2019-01-06T02:16:47.557Z,0.00
2019-01-06T02:17:47.578Z,0.00
2019-01-06T02:18:47.532Z,0.00
2019-01-06T02:19:47.520Z,0.00
2019-01-06T02:20:47.506Z,0.00
2019-01-06T02:21:47.495Z,0.00
2019-01-06T02:22:47.483Z,0.00
2019-01-06T02:23:47.486Z,0.00
2019-01-06T02:24:48.020Z,0.00
2019-01-06T02:25:47.454Z,0.00
2019-01-06T02:26:47.432Z,0.00
2019-01-06T02:27:47.432Z,0.00
2019-01-06T02:28:47.419Z,0.00
2019-01-06T02:29:47.397Z,0.00
2019-01-06T02:30:47.406Z,0.00
2019-01-06T02:31:47.461Z,0.00
2019-01-06T02:32:47.372Z,0.00
2019-01-06T02:33:47.379Z,0.00
2019-01-06T02:34:47.354Z,0.00
2019-01-06T02:35:47.371Z,0.00
2019-01-06T02:36:47.345Z,0.00
2019-01-06T02:37:47.316Z,0.00
2019-01-06T02:38:47.334Z,0.00
2019-01-06T02:39:47.303Z,0.00
2019-01-06T02:40:47.284Z,0.00
2019-01-06T02:41:47.273Z,0.00
2019-01-06T02:42:47.266Z,0.00
2019-01-06T02:43:47.254Z,0.00
2019-01-06T02:44:47.265Z,0.00
2019-01-06T02:45:47.232Z,0.00
2019-01-06T02:46:47.259Z,0.00
2019-01-06T02:47:47.210Z,0.00
2019-01-06T02:48:47.202Z,0.00
2019-01-06T02:49:47.190Z,0.00
2019-01-06T02:50:47.182Z,0.00
2019-01-06T02:51:47.168Z,0.00
2019-01-06T02:52:47.161Z,0.00
2019-01-06T02:53:47.150Z,0.00
2019-01-06T02:54:47.136Z,0.00
2019-01-06T02:55:47.137Z,0.00
2019-01-06T02:56:47.120Z,0.00
2019-01-06T02:57:47.114Z,0.00
2019-01-06T02:58:47.096Z,0.00
2019-01-06T02:59:47.097Z,0.00
2019-01-06T03:00:47.094Z,0.00
2019-01-06T03:01:47.072Z,0.00
2019-01-06T03:02:47.053Z,0.00
2019-01-06T03:03:47.052Z,0.00
2019-01-06T03:04:47.038Z,0.00
2019-01-06T03:05:47.036Z,0.00
2019-01-06T03:06:47.012Z,0.00
2019-01-06T03:07:47.009Z,0.00
2019-01-06T03:08:46.996Z,0.00
2019-01-06T03:09:47.018Z,0.00
2019-01-06T03:10:47.074Z,0.00
2019-01-06T03:11:46.970Z,0.00
2019-01-06T03:12:46.950Z,0.00
2019-01-06T03:13:46.949Z,0.00
2019-01-06T03:14:46.936Z,0.00
2019-01-06T03:15:46.935Z,0.00
2019-01-06T03:16:46.905Z,0.00
2019-01-06T03:17:46.911Z,0.00
2019-01-06T03:18:46.898Z,0.00
2019-01-06T03:19:46.882Z,0.00
2019-01-06T03:20:46.868Z,0.00
2019-01-06T03:21:46.863Z,0.00
2019-01-06T03:22:46.853Z,0.00
2019-01-06T03:23:46.849Z,0.00
2019-01-06T03:24:46.823Z,0.00
2019-01-06T03:25:46.829Z,0.00
2019-01-06T03:26:46.840Z,0.00
2019-01-06T03:27:46.800Z,0.00
2019-01-06T03:28:46.794Z,0.00
2019-01-06T03:29:46.799Z,0.00
2019-01-06T03:30:46.768Z,0.00
2019-01-06T03:31:46.769Z,0.00
2019-01-06T03:32:46.770Z,0.00
2019-01-06T03:33:46.781Z,0.00
2019-01-06T03:34:46.737Z,0.00
2019-01-06T03:35:46.758Z,0.00
2019-01-06T03:36:46.706Z,0.00
2019-01-06T03:37:46.704Z,0.00
2019-01-06T03:38:46.686Z,0.00
2019-01-06T03:39:46.670Z,0.00
2019-01-06T03:40:46.666Z,0.00
2019-01-06T03:41:46.677Z,0.00
2019-01-06T03:42:46.669Z,0.00
2019-01-06T03:43:46.629Z,0.00
2019-01-06T03:44:46.610Z,0.00
2019-01-06T03:45:46.647Z,0.00
2019-01-06T03:46:46.594Z,0.00
2019-01-06T03:47:46.602Z,0.00
2019-01-06T03:48:46.621Z,0.00
2019-01-06T03:49:46.568Z,0.00
2019-01-06T03:50:46.556Z,0.00
2019-01-06T03:51:46.542Z,0.00
2019-01-06T03:52:46.529Z,0.00
2019-01-06T03:53:46.539Z,0.00
2019-01-06T03:54:46.511Z,0.00
2019-01-06T03:55:46.500Z,0.00
2019-01-06T03:56:46.485Z,0.00
2019-01-06T03:57:46.479Z,0.00
2019-01-06T03:58:46.476Z,0.00
2019-01-06T03:59:46.446Z,0.00
2019-01-06T04:00:46.454Z,0.00
2019-01-06T04:01:46.449Z,0.00
2019-01-06T04:02:46.420Z,0.00
2019-01-06T04:03:46.407Z,0.00
2019-01-06T04:04:46.418Z,0.00
2019-01-06T04:05:46.392Z,0.00
2019-01-06T04:06:46.379Z,0.00
2019-01-06T04:07:46.372Z,0.00
2019-01-06T04:08:46.368Z,0.00
2019-01-06T04:09:46.347Z,0.00
2019-01-06T04:10:46.346Z,0.00
2019-01-06T04:11:46.362Z,0.00
2019-01-06T04:12:46.369Z,0.00
2019-01-06T04:13:46.335Z,0.00
2019-01-06T04:14:46.375Z,0.00
2019-01-06T04:15:46.284Z,0.00
2019-01-06T04:16:46.284Z,0.00
2019-01-06T04:17:46.278Z,0.00
2019-01-06T04:18:46.262Z,0.00
2019-01-06T04:19:46.249Z,0.00
2019-01-06T04:20:46.240Z,0.00
2019-01-06T04:21:46.241Z,0.00
2019-01-06T04:22:46.246Z,0.00
2019-01-06T04:23:46.256Z,0.00
2019-01-06T04:24:46.273Z,0.00
2019-01-06T04:25:46.241Z,0.00
2019-01-06T04:26:46.179Z,0.00
2019-01-06T04:27:46.168Z,0.00
2019-01-06T04:28:46.155Z,0.00
2019-01-06T04:29:46.146Z,0.00
2019-01-06T04:30:46.169Z,0.00
2019-01-06T04:31:46.121Z,0.00
2019-01-06T04:32:46.109Z,0.00
2019-01-06T04:33:46.114Z,0.00
2019-01-06T04:34:46.091Z,0.00
2019-01-06T04:35:46.097Z,0.00
2019-01-06T04:36:46.103Z,0.00
2019-01-06T04:37:46.118Z,0.00
2019-01-06T04:38:46.072Z,0.00
2019-01-06T04:39:46.055Z,0.00
2019-01-06T04:40:46.032Z,0.00
2019-01-06T04:41:46.032Z,0.00
2019-01-06T04:42:46.085Z,0.00
2019-01-06T04:43:46.057Z,0.00
2019-01-06T04:44:46.000Z,0.00
2019-01-06T04:45:46.004Z,0.00
2019-01-06T04:46:46.016Z,0.00
2019-01-06T04:47:45.978Z,0.00
2019-01-06T04:48:45.954Z,0.00
2019-01-06T04:49:45.936Z,0.00
2019-01-06T04:50:45.935Z,0.00
2019-01-06T04:51:45.922Z,0.00
2019-01-06T04:52:45.919Z,0.00
2019-01-06T04:53:45.896Z,0.00
2019-01-06T04:54:45.890Z,0.00
2019-01-06T04:55:45.875Z,0.00
2019-01-06T04:56:45.862Z,0.00
2019-01-06T04:57:45.950Z,0.00
2019-01-06T04:58:45.852Z,0.00
2019-01-06T04:59:45.853Z,0.00
2019-01-06T05:00:45.822Z,0.00
2019-01-06T05:01:45.816Z,0.00
2019-01-06T05:02:45.805Z,0.00
2019-01-06T05:03:45.787Z,0.00
2019-01-06T05:04:45.787Z,0.00
2019-01-06T05:05:45.785Z,0.00
2019-01-06T05:06:45.756Z,0.00
2019-01-06T05:07:45.751Z,0.00
2019-01-06T05:08:45.746Z,0.00
2019-01-06T05:09:45.772Z,0.00
2019-01-06T05:10:45.717Z,0.00
2019-01-06T05:11:45.726Z,0.00
2019-01-06T05:12:45.699Z,0.00
2019-01-06T05:13:45.681Z,0.00
2019-01-06T05:14:45.676Z,0.00
2019-01-06T05:15:45.648Z,0.00
2019-01-06T05:16:45.645Z,0.00
2019-01-06T05:17:45.641Z,0.00
2019-01-06T05:18:45.625Z,0.00
2019-01-06T05:19:45.619Z,0.00
2019-01-06T05:20:45.609Z,0.00
2019-01-06T05:21:45.599Z,0.00
2019-01-06T05:22:45.588Z,0.00
2019-01-06T05:23:45.615Z,0.00
2019-01-06T05:24:45.558Z,0.00
2019-01-06T05:25:45.553Z,0.00
2019-01-06T05:26:45.541Z,0.00
2019-01-06T05:27:45.531Z,0.00
2019-01-06T05:28:45.516Z,0.00
2019-01-06T05:29:45.513Z,0.00
2019-01-06T05:30:45.515Z,0.00
2019-01-06T05:31:45.527Z,0.00
2019-01-06T05:32:45.482Z,0.00
2019-01-06T05:33:45.476Z,0.00
2019-01-06T05:34:45.461Z,0.00
2019-01-06T05:35:45.459Z,0.00
2019-01-06T05:36:46.091Z,0.00
2019-01-06T05:37:45.429Z,0.00
2019-01-06T05:38:45.418Z,0.00
2019-01-06T05:39:45.405Z,0.00
2019-01-06T05:40:45.392Z,0.00
2019-01-06T05:41:45.377Z,0.00
2019-01-06T05:42:45.376Z,40.00
2019-01-06T05:43:45.363Z,44.00
2019-01-06T05:44:45.368Z,40.00
2019-01-06T05:45:45.343Z,44.00
2019-01-06T05:46:45.327Z,40.00
2019-01-06T05:47:45.315Z,40.00
2019-01-06T05:48:45.309Z,44.00
2019-01-06T05:49:45.303Z,44.00
2019-01-06T05:50:45.297Z,44.00
2019-01-06T05:51:45.279Z,44.00
2019-01-06T05:52:45.266Z,44.00
2019-01-06T05:53:45.251Z,44.00
2019-01-06T05:54:45.255Z,44.00
2019-01-06T05:55:45.258Z,44.00
2019-01-06T05:56:45.224Z,44.00
2019-01-06T05:57:45.234Z,44.00
2019-01-06T05:58:45.201Z,44.00
2019-01-06T05:59:45.206Z,44.00
2019-01-06T06:00:45.204Z,44.00
2019-01-06T06:01:45.172Z,44.00
2019-01-06T06:02:45.158Z,44.00
2019-01-06T06:03:45.155Z,44.00
2019-01-06T06:04:45.152Z,44.00
2019-01-06T06:05:45.139Z,44.00
2019-01-06T06:06:45.129Z,44.00
2019-01-06T06:07:45.109Z,44.00
2019-01-06T06:08:45.123Z,44.00
2019-01-06T06:09:45.103Z,44.00
2019-01-06T06:10:45.088Z,44.00
2019-01-06T06:11:45.103Z,44.00
2019-01-06T06:12:45.082Z,44.00
2019-01-06T06:13:45.064Z,44.00
2019-01-06T06:14:45.107Z,44.00
2019-01-06T06:15:45.109Z,44.00
2019-01-06T06:16:45.031Z,44.00
2019-01-06T06:17:45.032Z,44.00
2019-01-06T06:18:45.026Z,44.00
2019-01-06T06:19:45.014Z,44.00
2019-01-06T06:20:44.990Z,44.00
2019-01-06T06:21:44.988Z,44.00
2019-01-06T06:22:44.951Z,44.00
2019-01-06T06:23:44.954Z,44.00
2019-01-06T06:24:45.006Z,44.00
2019-01-06T06:25:44.981Z,44.00
2019-01-06T06:26:44.925Z,44.00
2019-01-06T06:27:44.920Z,44.00
2019-01-06T06:28:44.907Z,44.00
2019-01-06T06:29:44.891Z,44.00
2019-01-06T06:30:44.896Z,44.00
2019-01-06T06:31:44.872Z,44.00
2019-01-06T06:32:44.852Z,44.00
2019-01-06T06:33:44.903Z,44.00
2019-01-06T06:34:44.863Z,44.00
2019-01-06T06:35:44.827Z,44.00
2019-01-06T06:36:44.817Z,44.00
2019-01-06T06:37:44.822Z,44.00
2019-01-06T06:38:44.799Z,48.00
2019-01-06T06:39:44.773Z,48.00
2019-01-06T06:40:44.762Z,44.00
2019-01-06T06:41:44.761Z,44.00
2019-01-06T06:42:44.789Z,44.00
2019-01-06T06:43:44.752Z,44.00
2019-01-06T06:44:44.722Z,48.00
2019-01-06T06:45:44.712Z,48.00
2019-01-06T06:46:44.704Z,44.00
2019-01-06T06:47:44.704Z,48.00
2019-01-06T06:48:44.697Z,48.00
2019-01-06T06:49:44.679Z,48.00
2019-01-06T06:50:44.671Z,48.00
2019-01-06T06:51:44.655Z,52.00
2019-01-06T06:52:44.641Z,48.00
2019-01-06T06:53:44.646Z,52.00
2019-01-06T06:54:44.625Z,52.00
2019-01-06T06:55:44.718Z,52.00
2019-01-06T06:56:44.621Z,56.00
2019-01-06T06:57:44.605Z,56.00
2019-01-06T06:58:44.607Z,56.00
2019-01-06T06:59:44.579Z,56.00
2019-01-06T07:00:44.604Z,64.00
2019-01-06T07:01:44.557Z,64.00
2019-01-06T07:02:44.550Z,64.00
2019-01-06T07:03:44.522Z,68.00
2019-01-06T07:04:44.520Z,72.00
2019-01-06T07:05:44.504Z,76.00
2019-01-06T07:06:44.555Z,76.00
2019-01-06T07:07:44.529Z,88.00
2019-01-06T07:08:44.575Z,92.00
2019-01-06T07:09:44.544Z,96.00
2019-01-06T07:10:44.472Z,100.00
2019-01-06T07:11:44.457Z,104.00
2019-01-06T07:12:44.479Z,112.00
2019-01-06T07:13:44.430Z,116.00
2019-01-06T07:14:44.436Z,120.00
2019-01-06T07:15:44.404Z,128.00
2019-01-06T07:16:44.390Z,132.00
2019-01-06T07:17:44.430Z,136.00
2019-01-06T07:18:44.381Z,148.00
2019-01-06T07:19:44.378Z,160.00
2019-01-06T07:20:44.363Z,168.00
2019-01-06T07:21:44.358Z,172.00
2019-01-06T07:22:44.392Z,176.00
2019-01-06T07:23:44.329Z,192.00
2019-01-06T07:24:44.321Z,196.00
2019-01-06T07:25:44.299Z,200.00
2019-01-06T07:26:44.329Z,204.00
2019-01-06T07:27:44.343Z,216.00
2019-01-06T07:28:44.269Z,224.00
2019-01-06T07:29:44.265Z,228.00
2019-01-06T07:30:44.278Z,244.00
2019-01-06T07:31:44.252Z,264.00
2019-01-06T07:32:44.233Z,280.00
2019-01-06T07:33:44.300Z,292.00
2019-01-06T07:34:44.223Z,300.00
2019-01-06T07:35:44.205Z,312.00
2019-01-06T07:36:44.179Z,332.00
2019-01-06T07:37:44.164Z,348.00
2019-01-06T07:38:44.173Z,364.00
2019-01-06T07:39:44.180Z,376.00
2019-01-06T07:40:44.138Z,400.00
2019-01-06T07:41:44.141Z,432.00
2019-01-06T07:42:44.175Z,452.00
2019-01-06T07:43:44.130Z,472.00
2019-01-06T07:44:44.104Z,508.00
2019-01-06T07:45:44.113Z,532.00
2019-01-06T07:46:44.070Z,548.00
2019-01-06T07:47:44.074Z,580.00
2019-01-06T07:48:44.057Z,596.00
2019-01-06T07:49:44.043Z,592.00
2019-01-06T07:50:44.047Z,608.00
2019-01-06T07:51:45.004Z,660.00
2019-01-06T07:52:44.020Z,696.00
2019-01-06T07:53:44.021Z,716.00
2019-01-06T07:54:44.001Z,732.00
2019-01-06T07:55:43.975Z,772.00
2019-01-06T07:56:43.982Z,776.00
2019-01-06T07:57:43.960Z,752.00
2019-01-06T07:58:43.944Z,728.00
2019-01-06T07:59:43.972Z,792.00
2019-01-06T08:00:43.931Z,848.00
2019-01-06T08:01:43.917Z,872.00
2019-01-06T08:02:43.925Z,920.00
2019-01-06T08:03:43.898Z,968.00
2019-01-06T08:04:43.916Z,1012.00
2019-01-06T08:05:43.882Z,1016.00
2019-01-06T08:06:43.907Z,1044.00
2019-01-06T08:07:43.916Z,1112.00
2019-01-06T08:08:43.834Z,1168.00
2019-01-06T08:09:43.835Z,1220.00
2019-01-06T08:10:43.843Z,1296.00
2019-01-06T08:11:43.830Z,1412.00
2019-01-06T08:12:43.838Z,1524.00
2019-01-06T08:13:43.803Z,1528.00
2019-01-06T08:14:43.776Z,1492.00
2019-01-06T08:15:43.775Z,1476.00
2019-01-06T08:16:43.770Z,1492.00
2019-01-06T08:17:43.762Z,1556.00
2019-01-06T08:18:43.733Z,1664.00
2019-01-06T08:19:43.794Z,1748.00
2019-01-06T08:20:43.717Z,1780.00
2019-01-06T08:21:43.703Z,1700.00
2019-01-06T08:22:43.707Z,1604.00
2019-01-06T08:23:43.712Z,1628.00
2019-01-06T08:24:43.670Z,1696.00
2019-01-06T08:25:43.669Z,1700.00
2019-01-06T08:26:43.651Z,1684.00
2019-01-06T08:27:43.664Z,1648.00
2019-01-06T08:28:43.644Z,1620.00
2019-01-06T08:29:43.649Z,1672.00
2019-01-06T08:30:43.622Z,1648.00
2019-01-06T08:31:43.600Z,1596.00
2019-01-06T08:32:43.606Z,1640.00
2019-01-06T08:33:43.590Z,1688.00
2019-01-06T08:34:43.579Z,1688.00
2019-01-06T08:35:43.564Z,1672.00
2019-01-06T08:36:43.552Z,1648.00
2019-01-06T08:37:43.536Z,1596.00
2019-01-06T08:38:43.531Z,1628.00
2019-01-06T08:39:43.528Z,1656.00
2019-01-06T08:40:43.512Z,1696.00
2019-01-06T08:41:43.513Z,1740.00
2019-01-06T08:42:43.484Z,1728.00
2019-01-06T08:43:43.480Z,1712.00
2019-01-06T08:44:43.492Z,1652.00
2019-01-06T08:45:43.463Z,1652.00
2019-01-06T08:46:43.452Z,1628.00
2019-01-06T08:47:43.450Z,1612.00
2019-01-06T08:48:43.419Z,1580.00
2019-01-06T08:49:43.413Z,1596.00
2019-01-06T08:50:43.413Z,1612.00
2019-01-06T08:51:43.395Z,1568.00
2019-01-06T08:52:43.380Z,1608.00
2019-01-06T08:53:43.372Z,1628.00
2019-01-06T08:54:43.366Z,1588.00
2019-01-06T08:55:43.355Z,1652.00
2019-01-06T08:56:43.348Z,1660.00
2019-01-06T08:57:43.328Z,1688.00
2019-01-06T08:58:43.329Z,1712.00
2019-01-06T08:59:43.319Z,1704.00
2019-01-06T09:00:43.318Z,1736.00
2019-01-06T09:01:43.284Z,1752.00
2019-01-06T09:02:43.283Z,1732.00
2019-01-06T09:03:43.284Z,1744.00
2019-01-06T09:04:43.263Z,1744.00
2019-01-06T09:05:43.248Z,1772.00
2019-01-06T09:06:44.200Z,1872.00
2019-01-06T09:07:43.234Z,1964.00
2019-01-06T09:08:44.677Z,1996.00
2019-01-06T09:09:45.690Z,2032.00
2019-01-06T09:10:43.189Z,2032.00
2019-01-06T09:11:43.182Z,2044.00
2019-01-06T09:12:45.231Z,2132.00
2019-01-06T09:13:43.159Z,2212.00
2019-01-06T09:14:43.167Z,2360.00
2019-01-06T09:15:43.151Z,2404.00
2019-01-06T09:16:43.126Z,2328.00
2019-01-06T09:17:43.120Z,2288.00
2019-01-06T09:18:43.116Z,2236.00
2019-01-06T09:19:50.191Z,2252.00
2019-01-06T09:20:44.095Z,2380.00
2019-01-06T09:21:43.103Z,2492.00
2019-01-06T09:22:43.065Z,2456.00
2019-01-06T09:23:43.071Z,2428.00
2019-01-06T09:24:43.057Z,2400.00
2019-01-06T09:25:43.030Z,2372.00
2019-01-06T09:26:43.016Z,2420.00
2019-01-06T09:27:43.030Z,2512.00
2019-01-06T09:28:43.005Z,2668.00
2019-01-06T09:29:42.996Z,2856.00
2019-01-06T09:30:42.996Z,2880.00
2019-01-06T09:31:42.972Z,2980.00
2019-01-06T09:32:42.971Z,3072.00
2019-01-06T09:33:42.956Z,3032.00
2019-01-06T09:34:42.938Z,3116.00
2019-01-06T09:35:42.979Z,3276.00
2019-01-06T09:36:42.939Z,3368.00
2019-01-06T09:37:42.910Z,3276.00
2019-01-06T09:38:42.912Z,3104.00
2019-01-06T09:39:42.916Z,2944.00
2019-01-06T09:40:42.879Z,2912.00
2019-01-06T09:41:42.892Z,2876.00
2019-01-06T09:42:42.891Z,2824.00
2019-01-06T09:43:42.848Z,2816.00
2019-01-06T09:44:42.835Z,2744.00
2019-01-06T09:45:42.841Z,2860.00
2019-01-06T09:46:42.821Z,2972.00
2019-01-06T09:47:42.815Z,2828.00
2019-01-06T09:48:42.811Z,2884.00
2019-01-06T09:49:42.787Z,3008.00
2019-01-06T09:50:42.776Z,3104.00
2019-01-06T09:51:42.759Z,3084.00
2019-01-06T09:52:42.756Z,2996.00
2019-01-06T09:53:42.748Z,3008.00
2019-01-06T09:54:42.730Z,3028.00
2019-01-06T09:55:42.723Z,2884.00
2019-01-06T09:56:42.718Z,2660.00
2019-01-06T09:57:42.717Z,2488.00
2019-01-06T09:58:42.690Z,2640.00
2019-01-06T09:59:42.694Z,2448.00
2019-01-06T10:00:42.675Z,2068.00
2019-01-06T10:01:42.709Z,1972.00
2019-01-06T10:02:42.667Z,2036.00
2019-01-06T10:03:42.632Z,2092.00
2019-01-06T10:04:42.642Z,2288.00
2019-01-06T10:05:42.627Z,2236.00
2019-01-06T10:06:42.604Z,2116.00
2019-01-06T10:07:42.606Z,2284.00
2019-01-06T10:08:42.577Z,2592.00
2019-01-06T10:09:42.631Z,2840.00
2019-01-06T10:10:42.560Z,3028.00
2019-01-06T10:11:42.560Z,2948.00
2019-01-06T10:12:42.541Z,2640.00
2019-01-06T10:13:42.531Z,2384.00
2019-01-06T10:14:42.512Z,2520.00
2019-01-06T10:15:42.507Z,2612.00
2019-01-06T10:16:42.501Z,2460.00
2019-01-06T10:17:42.512Z,2376.00
2019-01-06T10:18:42.485Z,2136.00
2019-01-06T10:19:42.597Z,1860.00
2019-01-06T10:20:42.458Z,1848.00
2019-01-06T10:21:42.445Z,1932.00
2019-01-06T10:22:42.437Z,1936.00
2019-01-06T10:23:42.428Z,1932.00
2019-01-06T10:24:42.419Z,2140.00
2019-01-06T10:25:42.410Z,2292.00
2019-01-06T10:26:42.390Z,2544.00
2019-01-06T10:27:42.379Z,2984.00
2019-01-06T10:28:42.385Z,3476.00
2019-01-06T10:29:42.370Z,4120.00
2019-01-06T10:30:42.360Z,4224.00
2019-01-06T10:31:42.477Z,3912.00
2019-01-06T10:32:42.332Z,3692.00
2019-01-06T10:33:42.313Z,3644.00
2019-01-06T10:34:42.326Z,3772.00
2019-01-06T10:35:42.308Z,3880.00
2019-01-06T10:36:42.299Z,3864.00
2019-01-06T10:37:42.270Z,3928.00
2019-01-06T10:38:42.269Z,4156.00
2019-01-06T10:39:42.248Z,3896.00
2019-01-06T10:40:42.275Z,4472.00
2019-01-06T10:41:42.243Z,4088.00
2019-01-06T10:42:42.236Z,3972.00
2019-01-06T10:43:42.252Z,3804.00
2019-01-06T10:44:42.340Z,3496.00
2019-01-06T10:45:42.190Z,3512.00
2019-01-06T10:46:42.202Z,3788.00
2019-01-06T10:47:42.173Z,3452.00
2019-01-06T10:48:42.234Z,3092.00
2019-01-06T10:49:42.187Z,3024.00
2019-01-06T10:50:42.145Z,2956.00
2019-01-06T10:51:42.137Z,2844.00
2019-01-06T10:52:42.121Z,2736.00
2019-01-06T10:53:42.126Z,2664.00
2019-01-06T10:54:42.123Z,2716.00
2019-01-06T10:55:42.122Z,2764.00
2019-01-06T10:56:42.077Z,2664.00
2019-01-06T10:57:42.069Z,2476.00
2019-01-06T10:58:42.064Z,2376.00
2019-01-06T10:59:42.066Z,2408.00
2019-01-06T11:00:42.036Z,2460.00
2019-01-06T11:01:42.052Z,2576.00
2019-01-06T11:02:42.022Z,2720.00
2019-01-06T11:03:42.004Z,2660.00
2019-01-06T11:04:41.999Z,2628.00
2019-01-06T11:05:41.992Z,2648.00
2019-01-06T11:06:42.006Z,2716.00
2019-01-06T11:07:41.980Z,2604.00
2019-01-06T11:08:41.959Z,2492.00
2019-01-06T11:09:41.961Z,2608.00
2019-01-06T11:10:41.945Z,2580.00
2019-01-06T11:11:42.055Z,2560.00
2019-01-06T11:12:41.934Z,2544.00
2019-01-06T11:13:41.937Z,2508.00
2019-01-06T11:14:41.895Z,2560.00
2019-01-06T11:15:41.885Z,2508.00
2019-01-06T11:16:41.898Z,2512.00
2019-01-06T11:17:41.887Z,2452.00
2019-01-06T11:18:41.872Z,2312.00
2019-01-06T11:19:41.853Z,2228.00
2019-01-06T11:20:41.850Z,2268.00
2019-01-06T11:21:41.824Z,2272.00
2019-01-06T11:22:41.827Z,2348.00
2019-01-06T11:23:41.863Z,2444.00
2019-01-06T11:24:41.807Z,2492.00
2019-01-06T11:25:41.800Z,2584.00
2019-01-06T11:26:41.854Z,2748.00
2019-01-06T11:27:41.773Z,2820.00
2019-01-06T11:28:42.024Z,2884.00
2019-01-06T11:29:41.732Z,2884.00
2019-01-06T11:30:41.739Z,2824.00
2019-01-06T11:31:41.747Z,2844.00
2019-01-06T11:32:41.702Z,2840.00
2019-01-06T11:33:41.700Z,2824.00
2019-01-06T11:34:41.692Z,2812.00
2019-01-06T11:35:41.688Z,2848.00
2019-01-06T11:36:41.721Z,2912.00
2019-01-06T11:37:41.669Z,2944.00
2019-01-06T11:38:41.692Z,2860.00
2019-01-06T11:39:41.630Z,2796.00
2019-01-06T11:40:41.634Z,2800.00
2019-01-06T11:41:41.630Z,2816.00
2019-01-06T11:42:41.633Z,2732.00
2019-01-06T11:43:41.624Z,2688.00
2019-01-06T11:44:41.578Z,2688.00
2019-01-06T11:45:41.578Z,2684.00
2019-01-06T11:46:41.578Z,2656.00
2019-01-06T11:47:41.596Z,2620.00
2019-01-06T11:48:41.548Z,2588.00
2019-01-06T11:49:41.535Z,2584.00
2019-01-06T11:50:41.521Z,2520.00
2019-01-06T11:51:41.527Z,2480.00
2019-01-06T11:52:41.503Z,2480.00
2019-01-06T11:53:41.478Z,2500.00
2019-01-06T11:54:41.487Z,2516.00
2019-01-06T11:55:42.063Z,2612.00
2019-01-06T11:56:41.458Z,2712.00
2019-01-06T11:57:41.436Z,2672.00
2019-01-06T11:58:41.439Z,2708.00
2019-01-06T11:59:41.410Z,2724.00
2019-01-06T12:00:41.414Z,2528.00
2019-01-06T12:01:41.422Z,2436.00
2019-01-06T12:02:41.384Z,2356.00
2019-01-06T12:03:41.387Z,2420.00
2019-01-06T12:04:41.394Z,2556.00
2019-01-06T12:05:41.480Z,2476.00
2019-01-06T12:06:41.352Z,2440.00
2019-01-06T12:07:41.341Z,2396.00
2019-01-06T12:08:41.473Z,2348.00
2019-01-06T12:09:41.310Z,2384.00
2019-01-06T12:10:41.355Z,2496.00
2019-01-06T12:11:41.350Z,2588.00
2019-01-06T12:12:41.290Z,2532.00
2019-01-06T12:13:41.312Z,2480.00
2019-01-06T12:14:41.250Z,2392.00
2019-01-06T12:15:41.256Z,2352.00
2019-01-06T12:16:41.278Z,2372.00
2019-01-06T12:17:41.269Z,2372.00
2019-01-06T12:18:41.225Z,2356.00
2019-01-06T12:19:41.251Z,2348.00
2019-01-06T12:20:41.189Z,2352.00
2019-01-06T12:21:41.183Z,2348.00
2019-01-06T12:22:41.766Z,2356.00
2019-01-06T12:23:41.170Z,2360.00
2019-01-06T12:24:41.166Z,2348.00
2019-01-06T12:25:41.157Z,2340.00
2019-01-06T12:26:41.137Z,2332.00
2019-01-06T12:27:41.125Z,2312.00
2019-01-06T12:28:41.115Z,2284.00
2019-01-06T12:29:41.100Z,2256.00
2019-01-06T12:30:41.105Z,2240.00
2019-01-06T12:31:41.102Z,2224.00
2019-01-06T12:32:41.094Z,2236.00
2019-01-06T12:33:41.067Z,2260.00
2019-01-06T12:34:41.060Z,2264.00
2019-01-06T12:35:41.041Z,2260.00
2019-01-06T12:36:41.041Z,2252.00
2019-01-06T12:37:41.043Z,2248.00
2019-01-06T12:38:41.009Z,2220.00
2019-01-06T12:39:41.008Z,2188.00
2019-01-06T12:40:40.988Z,2144.00
2019-01-06T12:41:40.999Z,2112.00
2019-01-06T12:42:40.969Z,2076.00
2019-01-06T12:43:40.969Z,2044.00